Time;durP1;ratioP1;P1;durP2;ratioP2;P2;SDS_P1;SDS_P2;PMS_P1;PMS_P2;Temp;Humidity;BMP_temperature;BMP_pressure;BME280_temperature;BME280_humidity;BME280_pressure;Samples;Min_cycle;Max_cycle;Signal;HPM_P1;HPM_P2
2024/01/08 00:00:47;;;;;;;12.88;6.18;;;;;;;;;;5092385;28;20089;-61
2024/01/08 00:03:13;;;;;;;4.32;4.03;;;;;;;;;;5092058;28;20040;-62
2024/01/08 00:05:40;;;;;;;18.83;7.03;;;;;;;;;;5090156;28;20032;-62
2024/01/08 00:08:06;;;;;;;10.77;5.68;;;;;;;;;;5092198;28;20131;-61
2024/01/08 00:10:31;;;;;;;18.77;8.38;;;;;;;;;;5091861;28;20032;-61
2024/01/08 00:12:57;;;;;;;21.40;6.45;;;;;;;;;;5090458;28;20039;-61
2024/01/08 00:15:22;;;;;;;22.75;10.00;;;;;;;;;;5053921;28;20032;-62
2024/01/08 00:17:48;;;;;;;10.50;5.25;;;;;;;;;;5071951;28;20046;-60
2024/01/08 00:20:13;;;;;;;16.05;3.55;;;;;;;;;;5071816;28;20036;-61
2024/01/08 00:22:39;;;;;;;8.18;5.82;;;;;;;;;;5073712;28;20561;-60
2024/01/08 00:25:05;;;;;;;14.98;5.18;;;;;;;;;;5090489;28;20486;-61
2024/01/08 00:27:30;;;;;;;4.97;2.78;;;;;;;;;;5090460;28;20035;-62
2024/01/08 00:29:56;;;;;;;23.15;4.47;;;;;;;;;;5091991;28;20039;-61
2024/01/08 00:32:22;;;;;;;4.55;3.97;;;;;;;;;;5090346;28;20040;-62
2024/01/08 00:34:47;;;;;;;4.03;3.00;;;;;;;;;;5091871;28;20117;-62
2024/01/08 00:37:13;;;;;;;9.80;3.42;;;;;;;;;;5091604;28;20059;-61
2024/01/08 00:39:38;;;;;;;6.60;4.95;;;;;;;;;;5091859;28;20054;-61
2024/01/08 00:42:04;;;;;;;7.65;5.53;;;;;;;;;;5090320;28;20123;-61
2024/01/08 00:44:30;;;;;;;18.83;7.55;;;;;;;;;;5091946;28;20048;-60
2024/01/08 00:46:55;;;;;;;7.78;3.72;;;;;;;;;;5091881;28;20048;-62
2024/01/08 00:49:21;;;;;;;9.50;4.45;;;;;;;;;;5091589;28;20042;-62
2024/01/08 00:51:46;;;;;;;15.65;7.93;;;;;;;;;;5091655;28;20055;-58
2024/01/08 00:54:12;;;;;;;14.25;8.07;;;;;;;;;;5090886;28;20090;-61
2024/01/08 00:56:37;;;;;;;11.95;5.68;;;;;;;;;;5091400;28;20036;-63
2024/01/08 00:59:03;;;;;;;7.25;4.80;;;;;;;;;;5091724;28;20064;-59
2024/01/08 01:01:29;;;;;;;5.30;4.28;;;;;;;;;;5091730;28;20082;-61
2024/01/08 01:03:54;;;;;;;10.02;5.50;;;;;;;;;;5090070;28;20028;-59
2024/01/08 01:06:23;;;;;;;17.45;3.13;;;;;;;;;;5091523;28;20512;-62
2024/01/08 01:08:49;;;;;;;6.22;3.60;;;;;;;;;;5089902;28;20036;-61
2024/01/08 01:11:15;;;;;;;5.70;4.63;;;;;;;;;;5091239;28;20093;-62
2024/01/08 01:13:40;;;;;;;21.42;6.82;;;;;;;;;;5090084;28;20048;-61
2024/01/08 01:16:06;;;;;;;14.05;5.30;;;;;;;;;;5091656;28;20533;-60
2024/01/08 01:18:32;;;;;;;10.40;4.88;;;;;;;;;;5089991;28;20035;-61
2024/01/08 01:20:58;;;;;;;11.68;5.25;;;;;;;;;;5091169;28;20036;-62
2024/01/08 01:23:24;;;;;;;3.53;2.55;;;;;;;;;;5091374;28;20132;-61
2024/01/08 01:25:49;;;;;;;3.13;2.85;;;;;;;;;;5089912;28;20512;-61
2024/01/08 01:28:15;;;;;;;9.65;4.78;;;;;;;;;;5091303;28;20036;-59
2024/01/08 01:30:40;;;;;;;4.53;4.07;;;;;;;;;;5091277;28;20036;-63
2024/01/08 01:33:06;;;;;;;10.60;3.35;;;;;;;;;;5088496;28;20147;-61
2024/01/08 01:35:32;;;;;;;5.50;3.00;;;;;;;;;;5089112;28;20051;-60
2024/01/08 01:37:58;;;;;;;5.40;3.70;;;;;;;;;;5091192;28;20040;-59
2024/01/08 01:40:25;;;;;;;3.75;3.45;;;;;;;;;;5088899;28;20086;-60
2024/01/08 01:42:56;;;;;;;13.45;4.82;;;;;;;;;;5090980;28;20068;-60
2024/01/08 01:45:22;;;;;;;7.82;3.45;;;;;;;;;;5090888;28;20032;-60
2024/01/08 01:47:49;;;;;;;4.13;3.10;;;;;;;;;;5090917;28;20051;-61
2024/01/08 01:50:15;;;;;;;6.45;4.53;;;;;;;;;;5090742;28;20036;-61
2024/01/08 01:52:41;;;;;;;7.70;6.15;;;;;;;;;;5093710;28;20032;-61
2024/01/08 01:55:08;;;;;;;11.77;4.88;;;;;;;;;;5094569;28;20058;-60
2024/01/08 01:57:34;;;;;;;9.18;3.78;;;;;;;;;;5093472;28;20062;-61
2024/01/08 02:00:00;;;;;;;11.27;4.13;;;;;;;;;;5094760;28;20149;-60
2024/01/08 02:02:27;;;;;;;9.45;4.32;;;;;;;;;;5094510;28;20541;-61
2024/01/08 02:04:55;;;;;;;9.27;5.93;;;;;;;;;;5078522;28;20032;-61
2024/01/08 02:07:20;;;;;;;20.10;6.13;;;;;;;;;;5073952;28;20049;-61
2024/01/08 02:09:46;;;;;;;19.67;6.80;;;;;;;;;;5074355;28;20059;-61
2024/01/08 02:12:16;;;;;;;13.02;6.50;;;;;;;;;;5073868;28;20040;-60
2024/01/08 02:14:46;;;;;;;8.05;4.60;;;;;;;;;;5074296;28;20134;-61
2024/01/08 02:17:13;;;;;;;21.05;5.63;;;;;;;;;;5073912;28;20040;-59
2024/01/08 02:19:38;;;;;;;4.80;4.25;;;;;;;;;;5072542;28;20044;-61
2024/01/08 02:22:04;;;;;;;7.97;4.00;;;;;;;;;;5072832;28;20090;-61
2024/01/08 02:24:30;;;;;;;8.98;4.32;;;;;;;;;;5072608;28;20313;-61
2024/01/08 02:26:57;;;;;;;7.63;3.50;;;;;;;;;;5073944;28;20037;-62
2024/01/08 02:29:23;;;;;;;5.18;3.08;;;;;;;;;;5073912;28;20066;-60
2024/01/08 02:31:49;;;;;;;5.57;4.05;;;;;;;;;;5073830;28;20246;-61
2024/01/08 02:34:14;;;;;;;10.90;5.00;;;;;;;;;;5084067;28;20135;-61
2024/01/08 02:36:40;;;;;;;18.83;7.57;;;;;;;;;;5093974;28;20490;-63
2024/01/08 02:39:05;;;;;;;20.73;8.05;;;;;;;;;;5094049;28;20031;-59
2024/01/08 02:41:31;;;;;;;24.92;11.45;;;;;;;;;;5093774;28;20032;-63
2024/01/08 02:43:56;;;;;;;19.30;9.85;;;;;;;;;;5093790;28;20039;-60
2024/01/08 02:46:22;;;;;;;25.92;11.10;;;;;;;;;;5093752;28;20111;-60
2024/01/08 02:48:48;;;;;;;23.10;12.18;;;;;;;;;;5093652;28;20059;-60
2024/01/08 02:51:16;;;;;;;27.55;14.73;;;;;;;;;;5093264;28;20559;-62
2024/01/08 02:53:42;;;;;;;39.20;8.88;;;;;;;;;;5092214;28;20062;-60
2024/01/08 02:56:17;;;;;;;19.20;12.27;;;;;;;;;;5093503;28;20040;-60
2024/01/08 02:58:42;;;;;;;18.75;10.18;;;;;;;;;;5093300;28;20499;-61
2024/01/08 03:01:08;;;;;;;10.10;4.60;;;;;;;;;;5093460;28;20128;-61
2024/01/08 03:03:33;;;;;;;22.85;7.50;;;;;;;;;;5092263;28;20058;-58
2024/01/08 03:05:59;;;;;;;17.10;9.32;;;;;;;;;;5093077;28;20036;-59
2024/01/08 03:08:24;;;;;;;7.43;5.22;;;;;;;;;;5093101;28;20040;-61
2024/01/08 03:10:50;;;;;;;19.27;8.25;;;;;;;;;;5093104;28;20044;-62
2024/01/08 03:13:16;;;;;;;18.08;8.88;;;;;;;;;;5091625;28;20032;-60
2024/01/08 03:15:41;;;;;;;29.13;10.50;;;;;;;;;;5093126;28;20133;-62
2024/01/08 03:18:07;;;;;;;22.13;8.52;;;;;;;;;;5093038;28;20059;-60
2024/01/08 03:20:32;;;;;;;30.13;12.95;;;;;;;;;;5093049;28;20039;-61
2024/01/08 03:22:58;;;;;;;36.95;14.43;;;;;;;;;;5092967;28;20463;-61
2024/01/08 03:25:24;;;;;;;51.30;17.98;;;;;;;;;;5091680;28;20409;-63
2024/01/08 03:27:49;;;;;;;26.60;13.98;;;;;;;;;;5092929;28;20440;-60
2024/01/08 03:30:15;;;;;;;19.40;11.93;;;;;;;;;;5092873;28;20115;-61
2024/01/08 03:32:41;;;;;;;24.98;10.43;;;;;;;;;;5092873;28;20078;-60
2024/01/08 03:35:06;;;;;;;29.98;11.02;;;;;;;;;;5092880;28;20493;-60
2024/01/08 03:37:32;;;;;;;35.00;8.68;;;;;;;;;;5092659;28;20031;-61
2024/01/08 03:39:58;;;;;;;17.85;6.45;;;;;;;;;;5092928;28;20035;-58
2024/01/08 03:42:23;;;;;;;17.75;7.10;;;;;;;;;;5092721;28;20096;-62
2024/01/08 03:44:49;;;;;;;17.30;7.90;;;;;;;;;;5092745;28;20039;-60
2024/01/08 03:47:15;;;;;;;9.27;5.18;;;;;;;;;;5092285;28;20032;-61
2024/01/08 03:49:41;;;;;;;18.42;6.38;;;;;;;;;;5091326;28;20036;-60
2024/01/08 03:52:06;;;;;;;13.38;5.72;;;;;;;;;;5078972;28;20040;-61
2024/01/08 03:54:32;;;;;;;13.98;6.47;;;;;;;;;;5071507;28;20049;-62
2024/01/08 03:56:58;;;;;;;2.30;2.15;;;;;;;;;;5072158;28;20429;-63
2024/01/08 03:59:23;;;;;;;4.85;3.30;;;;;;;;;;5072121;28;20490;-62
2024/01/08 04:01:50;;;;;;;7.13;2.55;;;;;;;;;;5070640;28;20036;-60
2024/01/08 04:04:16;;;;;;;8.25;5.25;;;;;;;;;;5071668;28;20040;-60
2024/01/08 04:06:42;;;;;;;4.70;3.25;;;;;;;;;;5071780;28;20406;-60
2024/01/08 04:09:07;;;;;;;5.47;4.22;;;;;;;;;;5072007;28;20044;-60
2024/01/08 04:11:33;;;;;;;9.60;5.15;;;;;;;;;;5085169;28;20127;-60
2024/01/08 04:13:59;;;;;;;4.80;2.92;;;;;;;;;;5091705;28;20105;-61
2024/01/08 04:16:24;;;;;;;11.15;4.60;;;;;;;;;;5090845;28;20417;-61
2024/01/08 04:18:50;;;;;;;7.10;3.40;;;;;;;;;;5091954;28;20039;-60
2024/01/08 04:21:16;;;;;;;2.85;2.65;;;;;;;;;;5091776;28;20040;-60
2024/01/08 04:23:41;;;;;;;4.47;3.55;;;;;;;;;;5090501;28;20032;-59
2024/01/08 04:26:07;;;;;;;12.32;4.32;;;;;;;;;;5092284;28;20056;-64
2024/01/08 04:28:33;;;;;;;4.65;3.08;;;;;;;;;;5091996;28;20032;-61
2024/01/08 04:30:58;;;;;;;4.78;2.53;;;;;;;;;;5091950;28;20047;-63
2024/01/08 04:33:24;;;;;;;3.50;2.20;;;;;;;;;;5091763;28;20044;-60
2024/01/08 04:35:49;;;;;;;6.13;3.30;;;;;;;;;;5090354;28;20067;-60
2024/01/08 04:38:15;;;;;;;4.38;3.53;;;;;;;;;;5091783;28;20157;-61
2024/01/08 04:40:41;;;;;;;3.05;2.65;;;;;;;;;;5091161;28;20096;-59
2024/01/08 04:43:06;;;;;;;2.33;2.15;;;;;;;;;;5091646;28;20036;-61
2024/01/08 04:45:32;;;;;;;4.15;2.05;;;;;;;;;;5091397;28;20040;-59
2024/01/08 04:47:57;;;;;;;5.63;3.03;;;;;;;;;;5091647;28;20444;-61
2024/01/08 04:50:23;;;;;;;3.63;3.25;;;;;;;;;;5091308;28;20067;-60
2024/01/08 04:52:48;;;;;;;4.20;3.28;;;;;;;;;;5091021;28;20028;-59
2024/01/08 04:55:14;;;;;;;2.65;2.42;;;;;;;;;;5091544;28;20075;-61
2024/01/08 04:57:40;;;;;;;5.47;2.40;;;;;;;;;;5091337;28;20034;-60
2024/01/08 05:00:06;;;;;;;5.25;3.72;;;;;;;;;;5091869;28;20051;-61
2024/01/08 05:02:32;;;;;;;7.07;3.15;;;;;;;;;;5091371;28;20511;-61
2024/01/08 05:04:58;;;;;;;6.93;4.05;;;;;;;;;;5091150;28;20048;-60
2024/01/08 05:07:23;;;;;;;5.75;3.75;;;;;;;;;;5091614;28;20079;-63
2024/01/08 05:09:49;;;;;;;3.60;3.28;;;;;;;;;;5091855;28;20490;-61
2024/01/08 05:12:14;;;;;;;6.57;3.55;;;;;;;;;;5091365;28;20097;-60
2024/01/08 05:14:40;;;;;;;4.90;2.83;;;;;;;;;;5091633;28;20126;-61
2024/01/08 05:17:06;;;;;;;6.32;3.92;;;;;;;;;;5073555;28;20032;-63
2024/01/08 05:19:31;;;;;;;8.48;3.72;;;;;;;;;;5091017;28;20043;-61
2024/01/08 05:21:57;;;;;;;3.65;3.33;;;;;;;;;;5090327;28;20032;-62
2024/01/08 05:24:22;;;;;;;12.35;4.32;;;;;;;;;;5091258;28;20032;-60
2024/01/08 05:26:48;;;;;;;16.10;4.20;;;;;;;;;;5092990;28;20044;-62
2024/01/08 05:29:14;;;;;;;7.50;3.83;;;;;;;;;;5076883;28;20036;-61
2024/01/08 05:31:40;;;;;;;5.68;3.35;;;;;;;;;;5095321;28;20036;-61
2024/01/08 05:34:06;;;;;;;10.07;4.95;;;;;;;;;;5095206;28;20051;-60
2024/01/08 05:36:31;;;;;;;3.15;2.88;;;;;;;;;;5095259;28;20520;-61
2024/01/08 05:38:59;;;;;;;7.97;3.35;;;;;;;;;;5095063;28;20032;-61
2024/01/08 05:41:25;;;;;;;7.38;4.65;;;;;;;;;;5094871;28;20043;-60
2024/01/08 05:43:52;;;;;;;5.60;2.72;;;;;;;;;;5093513;28;20127;-61
2024/01/08 05:46:17;;;;;;;4.43;4.03;;;;;;;;;;5094584;28;20532;-61
2024/01/08 05:48:43;;;;;;;5.50;3.38;;;;;;;;;;5093379;28;20394;-61
2024/01/08 05:51:09;;;;;;;2.85;2.35;;;;;;;;;;5089064;28;20043;-61
2024/01/08 05:53:34;;;;;;;8.18;3.95;;;;;;;;;;5073821;28;20087;-61
2024/01/08 05:56:00;;;;;;;2.83;2.63;;;;;;;;;;5074144;28;20040;-61
2024/01/08 05:58:26;;;;;;;6.20;4.57;;;;;;;;;;5072738;28;20036;-61
2024/01/08 06:00:54;;;;;;;6.25;3.53;;;;;;;;;;5074479;28;20112;-61
2024/01/08 06:03:23;;;;;;;6.20;2.80;;;;;;;;;;5072856;28;20476;-60
2024/01/08 06:05:49;;;;;;;2.88;2.67;;;;;;;;;;5073996;28;20085;-60
2024/01/08 06:08:15;;;;;;;7.18;2.47;;;;;;;;;;5072872;28;20044;-60
2024/01/08 06:10:41;;;;;;;4.50;3.58;;;;;;;;;;5074172;28;20491;-63
2024/01/08 06:13:09;;;;;;;4.18;3.60;;;;;;;;;;5073955;28;20474;-59
2024/01/08 06:15:34;;;;;;;11.70;3.75;;;;;;;;;;5077755;28;20486;-61
2024/01/08 06:18:00;;;;;;;7.15;3.80;;;;;;;;;;5094115;28;20067;-59
2024/01/08 06:20:26;;;;;;;5.32;3.10;;;;;;;;;;5094236;28;20119;-63
2024/01/08 06:22:51;;;;;;;4.57;3.05;;;;;;;;;;5093836;28;20036;-62
2024/01/08 06:25:17;;;;;;;12.80;3.75;;;;;;;;;;5093951;28;20055;-61
2024/01/08 06:27:43;;;;;;;4.72;2.47;;;;;;;;;;5092859;28;20081;-60
2024/01/08 06:30:09;;;;;;;3.17;2.90;;;;;;;;;;5093724;28;20037;-60
2024/01/08 06:32:35;;;;;;;1.92;1.73;;;;;;;;;;5092105;28;20032;-60
2024/01/08 06:35:01;;;;;;;4.47;2.92;;;;;;;;;;5094013;28;20070;-61
2024/01/08 06:37:26;;;;;;;7.53;3.38;;;;;;;;;;5079927;28;20449;-63
2024/01/08 06:39:52;;;;;;;6.60;3.40;;;;;;;;;;5090620;28;20049;-62
2024/01/08 06:42:18;;;;;;;6.78;4.22;;;;;;;;;;5092399;28;20101;-63
2024/01/08 06:44:44;;;;;;;10.02;4.03;;;;;;;;;;5094036;28;20035;-61
2024/01/08 06:47:09;;;;;;;6.63;3.47;;;;;;;;;;5092665;28;20038;-63
2024/01/08 06:49:35;;;;;;;6.35;3.50;;;;;;;;;;5092216;28;20558;-61
2024/01/08 06:52:01;;;;;;;7.65;3.25;;;;;;;;;;5080990;28;20478;-61
2024/01/08 06:54:26;;;;;;;8.95;4.28;;;;;;;;;;5072748;28;20063;-60
2024/01/08 06:56:52;;;;;;;3.40;2.75;;;;;;;;;;5072137;28;20028;-63
2024/01/08 06:59:18;;;;;;;8.80;3.30;;;;;;;;;;5077042;28;20040;-61
2024/01/08 07:01:45;;;;;;;5.95;3.72;;;;;;;;;;5092511;28;20039;-62
2024/01/08 07:04:10;;;;;;;4.97;3.45;;;;;;;;;;5093405;28;20035;-61
2024/01/08 07:06:36;;;;;;;5.50;4.28;;;;;;;;;;5093178;28;20516;-63
2024/01/08 07:09:02;;;;;;;10.25;3.53;;;;;;;;;;5092758;28;20036;-62
2024/01/08 07:11:28;;;;;;;13.15;7.22;;;;;;;;;;5092975;28;20085;-64
2024/01/08 07:13:53;;;;;;;3.08;2.83;;;;;;;;;;5093036;28;20048;-60
2024/01/08 07:16:19;;;;;;;4.40;3.22;;;;;;;;;;5092932;28;20044;-61
2024/01/08 07:18:45;;;;;;;3.25;2.72;;;;;;;;;;5091608;28;20122;-61
2024/01/08 07:21:13;;;;;;;6.88;3.05;;;;;;;;;;5092461;28;20055;-60
2024/01/08 07:23:39;;;;;;;9.40;3.53;;;;;;;;;;5091753;28;20036;-61
2024/01/08 07:26:05;;;;;;;4.85;2.63;;;;;;;;;;5093071;28;20040;-61
2024/01/08 07:28:30;;;;;;;6.00;3.13;;;;;;;;;;5091420;28;20494;-63
2024/01/08 07:30:56;;;;;;;8.40;4.07;;;;;;;;;;5092638;28;20123;-62
2024/01/08 07:33:22;;;;;;;4.07;3.47;;;;;;;;;;5090764;28;20036;-67
2024/01/08 07:35:47;;;;;;;9.60;5.20;;;;;;;;;;5074400;28;20059;-61
2024/01/08 07:38:13;;;;;;;7.93;4.10;;;;;;;;;;5090968;28;20028;-62
2024/01/08 07:40:39;;;;;;;8.18;4.18;;;;;;;;;;5092094;28;20047;-61
2024/01/08 07:43:04;;;;;;;2.40;2.20;;;;;;;;;;5091195;28;20158;-61
2024/01/08 07:45:30;;;;;;;8.45;3.33;;;;;;;;;;5091143;28;20036;-62
2024/01/08 07:47:57;;;;;;;3.92;3.47;;;;;;;;;;5092317;28;20514;-63
2024/01/08 07:50:22;;;;;;;4.90;2.88;;;;;;;;;;5090449;28;20032;-60
2024/01/08 07:52:48;;;;;;;4.18;2.97;;;;;;;;;;5072637;28;20063;-62
2024/01/08 07:55:13;;;;;;;7.75;4.53;;;;;;;;;;5072241;28;20264;-61
2024/01/08 07:57:39;;;;;;;6.72;3.90;;;;;;;;;;5072260;28;20035;-61
2024/01/08 08:00:11;;;;;;;8.13;4.03;;;;;;;;;;5092285;28;20071;-61
2024/01/08 08:02:38;;;;;;;5.65;3.22;;;;;;;;;;5092012;28;20032;-60
2024/01/08 08:05:04;;;;;;;4.68;2.63;;;;;;;;;;5091996;28;20044;-61
2024/01/08 08:07:30;;;;;;;7.20;4.38;;;;;;;;;;5090578;28;20047;-63
2024/01/08 08:09:55;;;;;;;10.02;3.45;;;;;;;;;;5091817;28;20104;-63
2024/01/08 08:12:21;;;;;;;9.70;3.42;;;;;;;;;;5089925;28;20114;-61
2024/01/08 08:14:49;;;;;;;9.27;4.95;;;;;;;;;;5091527;28;20505;-62
2024/01/08 08:17:18;;;;;;;6.05;3.97;;;;;;;;;;5089766;28;20119;-61
2024/01/08 08:19:44;;;;;;;9.18;4.32;;;;;;;;;;5091958;28;20032;-61
2024/01/08 08:22:11;;;;;;;7.05;3.85;;;;;;;;;;5091458;28;20042;-62
2024/01/08 08:24:40;;;;;;;5.53;4.07;;;;;;;;;;5092005;28;20114;-61
2024/01/08 08:27:12;;;;;;;10.05;4.20;;;;;;;;;;5091748;28;20075;-60
2024/01/08 08:29:38;;;;;;;10.18;4.60;;;;;;;;;;5091542;28;20028;-61
2024/01/08 08:32:04;;;;;;;6.70;4.05;;;;;;;;;;5073632;28;20036;-61
2024/01/08 08:34:30;;;;;;;8.32;4.00;;;;;;;;;;5089914;28;20530;-61
2024/01/08 08:36:56;;;;;;;9.10;4.82;;;;;;;;;;5090174;28;20068;-61
2024/01/08 08:39:22;;;;;;;8.70;4.30;;;;;;;;;;5091656;28;20036;-59
2024/01/08 08:41:47;;;;;;;6.53;3.72;;;;;;;;;;5091486;28;20539;-63
2024/01/08 08:44:13;;;;;;;11.65;4.63;;;;;;;;;;5073228;28;20060;-61
2024/01/08 08:46:39;;;;;;;12.02;4.28;;;;;;;;;;5091638;28;20106;-65
2024/01/08 08:49:06;;;;;;;11.60;5.07;;;;;;;;;;5091539;28;20028;-62
2024/01/08 08:51:33;;;;;;;12.35;5.18;;;;;;;;;;5091357;28;20047;-62
2024/01/08 08:54:01;;;;;;;5.93;3.17;;;;;;;;;;5089818;28;20108;-61
2024/01/08 08:56:26;;;;;;;12.10;4.75;;;;;;;;;;5091296;28;20037;-61
2024/01/08 08:58:52;;;;;;;21.85;12.73;;;;;;;;;;5091537;28;20051;-63
2024/01/08 09:01:18;;;;;;;10.85;4.78;;;;;;;;;;5092558;28;20110;-63
2024/01/08 09:03:44;;;;;;;11.80;6.00;;;;;;;;;;5095784;28;20036;-59
2024/01/08 09:06:09;;;;;;;11.65;5.30;;;;;;;;;;5094471;28;20043;-61
2024/01/08 09:08:35;;;;;;;13.93;5.40;;;;;;;;;;5094239;28;20028;-61
2024/01/08 09:11:00;;;;;;;19.00;7.03;;;;;;;;;;5095019;28;20498;-61
2024/01/08 09:13:26;;;;;;;12.60;5.63;;;;;;;;;;5095225;28;20038;-59
2024/01/08 09:15:52;;;;;;;9.38;5.38;;;;;;;;;;5094741;28;20032;-59
2024/01/08 09:18:18;;;;;;;9.93;5.65;;;;;;;;;;5094926;28;20517;-59
2024/01/08 09:20:43;;;;;;;13.43;5.95;;;;;;;;;;5095155;28;20032;-62
2024/01/08 09:23:09;;;;;;;9.57;5.38;;;;;;;;;;5095241;28;20036;-60
2024/01/08 09:25:35;;;;;;;10.57;4.63;;;;;;;;;;5095333;28;20032;-61
2024/01/08 09:28:00;;;;;;;11.63;5.63;;;;;;;;;;5093716;28;20109;-61
2024/01/08 09:30:26;;;;;;;8.70;5.55;;;;;;;;;;5095107;28;20047;-60
2024/01/08 09:32:51;;;;;;;11.68;5.32;;;;;;;;;;5095022;28;20402;-60
2024/01/08 09:35:17;;;;;;;15.38;6.65;;;;;;;;;;5094862;28;20051;-61
2024/01/08 09:37:43;;;;;;;11.60;5.72;;;;;;;;;;5094828;28;20062;-60
2024/01/08 09:40:10;;;;;;;7.10;5.10;;;;;;;;;;5094970;28;20094;-60
2024/01/08 09:42:36;;;;;;;11.52;4.85;;;;;;;;;;5093820;28;20040;-60
2024/01/08 09:45:03;;;;;;;21.73;7.85;;;;;;;;;;5094994;28;20084;-60
2024/01/08 09:47:31;;;;;;;10.15;4.93;;;;;;;;;;5094809;28;20339;-61
2024/01/08 09:49:57;;;;;;;9.73;4.78;;;;;;;;;;5095034;28;20047;-61
2024/01/08 09:52:23;;;;;;;8.98;5.28;;;;;;;;;;5094224;28;20036;-60
2024/01/08 09:54:49;;;;;;;12.68;5.93;;;;;;;;;;5094148;28;20419;-62
2024/01/08 09:57:14;;;;;;;10.63;4.40;;;;;;;;;;5094754;28;20040;-66
2024/01/08 09:59:40;;;;;;;6.63;4.20;;;;;;;;;;5094782;28;20063;-62
2024/01/08 10:02:14;;;;;;;5.25;3.42;;;;;;;;;;5094402;28;20097;-60
2024/01/08 10:04:39;;;;;;;10.95;4.57;;;;;;;;;;5094711;28;20058;-61
2024/01/08 10:07:05;;;;;;;9.98;4.13;;;;;;;;;;5094505;28;20032;-62
2024/01/08 10:09:31;;;;;;;6.85;4.25;;;;;;;;;;5093268;28;20032;-60
2024/01/08 10:11:57;;;;;;;7.72;3.88;;;;;;;;;;5090461;28;20036;-62
2024/01/08 10:14:23;;;;;;;6.18;3.70;;;;;;;;;;5092186;28;20042;-60
2024/01/08 10:16:49;;;;;;;11.05;5.13;;;;;;;;;;5091681;28;20459;-58
2024/01/08 10:19:17;;;;;;;6.18;3.92;;;;;;;;;;5093958;28;20039;-60
2024/01/08 10:21:45;;;;;;;9.90;4.13;;;;;;;;;;5094038;28;20040;-60
2024/01/08 10:24:10;;;;;;;7.93;4.55;;;;;;;;;;5092388;28;20035;-58
2024/01/08 10:26:40;;;;;;;10.27;4.45;;;;;;;;;;5094083;28;20036;-61
2024/01/08 10:29:10;;;;;;;9.07;4.32;;;;;;;;;;5094033;28;20124;-59
2024/01/08 10:31:36;;;;;;;7.68;4.22;;;;;;;;;;5093906;28;20047;-61
2024/01/08 10:34:05;;;;;;;12.60;5.57;;;;;;;;;;5093677;28;20044;-61
2024/01/08 10:36:35;;;;;;;13.15;5.13;;;;;;;;;;5093622;28;20044;-59
2024/01/08 10:39:00;;;;;;;7.32;4.25;;;;;;;;;;5092669;28;20036;-60
2024/01/08 10:41:27;;;;;;;10.70;4.90;;;;;;;;;;5093925;28;20543;-62
2024/01/08 10:43:52;;;;;;;10.27;4.82;;;;;;;;;;5093812;28;20482;-61
2024/01/08 10:46:18;;;;;;;12.15;5.03;;;;;;;;;;5093422;28;20046;-62
2024/01/08 10:48:45;;;;;;;11.48;5.15;;;;;;;;;;5093729;28;20036;-60
2024/01/08 10:51:13;;;;;;;9.10;4.70;;;;;;;;;;5086291;28;20043;-60
2024/01/08 10:53:46;;;;;;;9.88;5.28;;;;;;;;;;5071780;28;20450;-60
2024/01/08 10:56:13;;;;;;;12.63;5.15;;;;;;;;;;5086441;28;20051;-60
2024/01/08 10:58:43;;;;;;;13.52;6.63;;;;;;;;;;5093290;28;20432;-60
2024/01/08 11:01:08;;;;;;;15.13;6.28;;;;;;;;;;5093302;28;20064;-62
2024/01/08 11:03:35;;;;;;;11.32;6.53;;;;;;;;;;5091703;28;20078;-61
2024/01/08 11:06:03;;;;;;;12.73;6.03;;;;;;;;;;5092945;28;20036;-61
2024/01/08 11:08:31;;;;;;;16.25;7.13;;;;;;;;;;5093163;28;20052;-59
2024/01/08 11:11:04;;;;;;;13.02;6.43;;;;;;;;;;5092947;28;20032;-61
2024/01/08 11:13:30;;;;;;;13.98;7.45;;;;;;;;;;5092490;28;20028;-61
2024/01/08 11:15:57;;;;;;;15.40;6.45;;;;;;;;;;5091913;28;20056;-60
2024/01/08 11:18:24;;;;;;;13.63;6.40;;;;;;;;;;5091448;28;20042;-60
2024/01/08 11:20:50;;;;;;;12.50;6.13;;;;;;;;;;5092978;28;20086;-60
2024/01/08 11:23:33;;;;;;;11.35;5.97;;;;;;;;;;5091062;28;20043;-60
2024/01/08 11:26:02;;;;;;;8.95;4.90;;;;;;;;;;5092919;28;20036;-59
2024/01/08 11:28:32;;;;;;;17.33;7.68;;;;;;;;;;5093005;28;20031;-59
2024/01/08 11:31:16;;;;;;;9.50;5.50;;;;;;;;;;5091873;28;20036;-58
2024/01/08 11:34:03;;;;;;;12.73;5.65;;;;;;;;;;5092087;28;20429;-60
2024/01/08 11:36:43;;;;;;;13.73;6.05;;;;;;;;;;5092827;28;20520;-62
2024/01/08 11:39:13;;;;;;;13.70;5.90;;;;;;;;;;5092821;28;20042;-62
2024/01/08 11:41:39;;;;;;;8.65;4.88;;;;;;;;;;5092784;28;20044;-61
2024/01/08 11:44:05;;;;;;;12.00;6.25;;;;;;;;;;5092815;28;20382;-62
2024/01/08 11:46:31;;;;;;;18.23;5.35;;;;;;;;;;5091238;28;20078;-62
2024/01/08 11:48:57;;;;;;;10.85;5.43;;;;;;;;;;5092681;28;20038;-62
2024/01/08 11:51:23;;;;;;;24.73;10.98;;;;;;;;;;5092237;28;20118;-63
2024/01/08 11:53:51;;;;;;;11.10;5.88;;;;;;;;;;5091899;28;20052;-63
2024/01/08 11:56:17;;;;;;;14.75;5.95;;;;;;;;;;5092481;28;20036;-61
2024/01/08 11:58:49;;;;;;;10.73;5.65;;;;;;;;;;5091064;28;20138;-61
2024/01/08 12:01:18;;;;;;;13.85;5.93;;;;;;;;;;5092351;28;20036;-61
2024/01/08 12:03:43;;;;;;;10.07;5.30;;;;;;;;;;5091984;28;20036;-59
2024/01/08 12:06:09;;;;;;;10.63;5.55;;;;;;;;;;5092365;28;20038;-61
2024/01/08 12:08:35;;;;;;;12.02;6.18;;;;;;;;;;5092290;28;20039;-62
2024/01/08 12:11:01;;;;;;;8.32;5.22;;;;;;;;;;5090535;28;20040;-61
2024/01/08 12:13:26;;;;;;;13.57;5.68;;;;;;;;;;5092014;28;20031;-57
2024/01/08 12:15:52;;;;;;;14.80;5.75;;;;;;;;;;5091895;28;20390;-60
2024/01/08 12:18:18;;;;;;;13.90;6.07;;;;;;;;;;5091856;28;20043;-61
2024/01/08 12:20:44;;;;;;;11.35;6.18;;;;;;;;;;5090338;28;20032;-61
2024/01/08 12:23:09;;;;;;;16.58;5.07;;;;;;;;;;5091388;28;20053;-61
2024/01/08 12:25:35;;;;;;;10.77;5.63;;;;;;;;;;5091906;28;20111;-62
2024/01/08 12:28:01;;;;;;;10.18;5.68;;;;;;;;;;5091977;28;20035;-59
2024/01/08 12:30:27;;;;;;;13.50;5.18;;;;;;;;;;5091674;28;20048;-61
2024/01/08 12:32:52;;;;;;;11.75;6.03;;;;;;;;;;5091777;28;20024;-60
2024/01/08 12:35:18;;;;;;;12.70;6.05;;;;;;;;;;5091591;28;20036;-61
2024/01/08 12:37:44;;;;;;;10.65;5.78;;;;;;;;;;5090205;28;20032;-61
2024/01/08 12:40:10;;;;;;;8.82;5.72;;;;;;;;;;5091625;28;20523;-61
2024/01/08 12:42:36;;;;;;;14.13;5.75;;;;;;;;;;5090729;28;20494;-63
2024/01/08 12:45:04;;;;;;;10.50;5.10;;;;;;;;;;5091999;28;20036;-61
2024/01/08 12:47:30;;;;;;;14.07;5.70;;;;;;;;;;5091411;28;20512;-62
2024/01/08 12:49:56;;;;;;;14.13;5.15;;;;;;;;;;5091882;28;20039;-62
2024/01/08 12:52:22;;;;;;;13.93;5.65;;;;;;;;;;5091327;28;20036;-61
2024/01/08 12:54:48;;;;;;;9.93;5.38;;;;;;;;;;5087726;28;20056;-60
2024/01/08 12:57:16;;;;;;;10.90;5.53;;;;;;;;;;5089332;28;20042;-61
2024/01/08 12:59:52;;;;;;;13.32;5.22;;;;;;;;;;5091779;28;20054;-60
2024/01/08 13:02:18;;;;;;;13.55;4.85;;;;;;;;;;5091580;28;20067;-61
2024/01/08 13:04:45;;;;;;;10.25;4.45;;;;;;;;;;5089506;28;20482;-60
2024/01/08 13:07:11;;;;;;;9.25;5.10;;;;;;;;;;5088741;28;20093;-60
2024/01/08 13:09:37;;;;;;;6.55;4.88;;;;;;;;;;5072161;28;20028;-61
2024/01/08 13:12:03;;;;;;;7.68;4.40;;;;;;;;;;5091615;28;20033;-59
2024/01/08 13:14:29;;;;;;;11.38;5.53;;;;;;;;;;5089980;28;20573;-59
2024/01/08 13:16:55;;;;;;;7.63;4.78;;;;;;;;;;5089999;28;20173;-61
2024/01/08 13:19:21;;;;;;;9.23;4.53;;;;;;;;;;5091414;28;20043;-61
2024/01/08 13:21:47;;;;;;;8.82;4.85;;;;;;;;;;5090269;28;20063;-61
2024/01/08 13:24:15;;;;;;;7.78;3.35;;;;;;;;;;5090041;28;20115;-59
2024/01/08 13:26:41;;;;;;;9.90;4.38;;;;;;;;;;5091407;28;20409;-61
2024/01/08 13:29:07;;;;;;;9.52;4.40;;;;;;;;;;5091499;28;20028;-61
2024/01/08 13:31:35;;;;;;;13.25;4.72;;;;;;;;;;5091023;28;20032;-62
2024/01/08 13:34:06;;;;;;;10.32;4.43;;;;;;;;;;5091260;28;20040;-60
2024/01/08 13:36:33;;;;;;;9.23;4.38;;;;;;;;;;5090717;28;20401;-61
2024/01/08 13:38:59;;;;;;;8.98;4.55;;;;;;;;;;5089346;28;20101;-62
2024/01/08 13:41:25;;;;;;;6.40;3.65;;;;;;;;;;5072841;28;20082;-63
2024/01/08 13:43:51;;;;;;;8.43;4.22;;;;;;;;;;5091477;28;20451;-60
2024/01/08 13:46:16;;;;;;;8.57;5.05;;;;;;;;;;5090858;28;20036;-62
2024/01/08 13:48:42;;;;;;;4.35;3.30;;;;;;;;;;5093887;28;20047;-58
2024/01/08 13:51:09;;;;;;;9.57;4.43;;;;;;;;;;5094365;28;20036;-62
2024/01/08 13:53:36;;;;;;;8.75;4.32;;;;;;;;;;5094373;28;20074;-59
2024/01/08 13:56:03;;;;;;;13.82;4.70;;;;;;;;;;5094598;28;20408;-60
2024/01/08 13:58:29;;;;;;;12.52;4.32;;;;;;;;;;5094327;28;20037;-61
2024/01/08 14:00:55;;;;;;;7.13;3.63;;;;;;;;;;5089585;28;20465;-60
2024/01/08 14:03:21;;;;;;;9.82;3.65;;;;;;;;;;5087403;28;20036;-61
2024/01/08 14:05:46;;;;;;;6.80;4.28;;;;;;;;;;5084942;28;20043;-62
2024/01/08 14:08:12;;;;;;;7.38;4.25;;;;;;;;;;5083846;28;20078;-61
2024/01/08 14:10:38;;;;;;;10.10;3.72;;;;;;;;;;5094212;28;20044;-62
2024/01/08 14:13:04;;;;;;;9.55;4.13;;;;;;;;;;5094409;28;20036;-60
2024/01/08 14:15:30;;;;;;;7.72;3.67;;;;;;;;;;5094336;28;20043;-59
2024/01/08 14:17:59;;;;;;;10.90;4.05;;;;;;;;;;5075951;28;20382;-60
2024/01/08 14:20:25;;;;;;;7.53;4.35;;;;;;;;;;5088136;28;20036;-60
2024/01/08 14:22:50;;;;;;;11.45;4.38;;;;;;;;;;5094297;28;20492;-60
2024/01/08 14:25:16;;;;;;;7.05;3.80;;;;;;;;;;5093646;28;20732;-63
2024/01/08 14:27:42;;;;;;;8.00;3.75;;;;;;;;;;5092785;28;20024;-64
2024/01/08 14:30:08;;;;;;;7.15;4.10;;;;;;;;;;5091096;28;20040;-60